• Join FlightAware (Why Join?)
  • Login
  • US Flag 
05:35PM EST


 

Airport Tracker/Info


-or-


 

Live Flight TrackerFlight Track Log ✈ UAL33 ✈ 16-Jun-2013 ✈ KIAH - KORD

Flight Track Log - Related Links

Times and Time Zones

All times are in EDT time to prevent confusion due to time zone crossing. See the UAL33 flight status page for this flight to view local times or setup timezone preferences in your user account.

Time Position Orientation Groundspeed Altitude Reporting Facility
EDT Latitude Longitude Course Direction KTS MPH feet Rate Location/Type
06:04PM 29.9484 -95.3364 158° South 159 183 1,400  Level FlightAware ADS-B
06:04PM 29.9460 -95.3367 186° South 164 189 1,500 1,500 Climbing FlightAware ADS-B
06:04PM 29.9424 -95.3380 197° South 171 197 1,600 1,500 Climbing FlightAware ADS-B
06:05PM 29.9397 -95.3397 209° Southwest 176 203 1,700 1,980 Climbing FlightAware ADS-B
06:05PM 29.9365 -95.3429 221° Southwest 180 207 1,900 2,640 Climbing FlightAware ADS-B
06:05PM 29.9346 -95.3459 234° Southwest 183 211 2,100 2,520 Climbing FlightAware ADS-B
06:05PM 29.9335 -95.3486 245° Southwest 185 213 2,200 2,640 Climbing FlightAware ADS-B
06:05PM 29.9321 -95.3544 254° West 188 216 2,500 2,640 Climbing FlightAware ADS-B
06:05PM 29.9320 -95.3578 268° West 190 219 2,600 2,520 Climbing FlightAware ADS-B
06:05PM 29.9324 -95.3620 276° West 191 220 2,800 2,640 Climbing FlightAware ADS-B
06:05PM 29.9334 -95.3660 286° West 193 222 3,000 2,220 Climbing FlightAware ADS-B
06:05PM 29.9347 -95.3690 297° West 195 224 3,100 2,220 Climbing FlightAware ADS-B
06:05PM 29.9377 -95.3736 307° West 197 227 3,300 2,280 Climbing FlightAware ADS-B
06:05PM 29.9434 -95.3787 322° Northwest 200 230 3,600 1,680 Climbing FlightAware ADS-B
06:05PM 29.9485 -95.3811 338° Northwest 211 243 3,700 1,200 Climbing FlightAware ADS-B
06:05PM 29.9526 -95.3822 347° North 221 254 3,800 1,680 Climbing FlightAware ADS-B
06:06PM 29.9562 -95.3825 356° North 228 262 3,900 720 Climbing FlightAware ADS-B
06:06PM 29.9613 -95.3825 360° North 238 274 3,900 660 Level FlightAware ADS-B
06:06PM 29.9979 -95.3795 North 270 311 4,300 1,140 Climbing FlightAware ADS-B
06:06PM 30.0187 -95.3774 North 276 318 4,800 420 Climbing FlightAware ADS-B
06:08PM 30.1124 -95.3675 North 279 321 5,000 480 Climbing FlightAware ADS-B
06:08PM 30.1538 -95.3631 North 283 326 5,700 2,460 Climbing FlightAware ADS-B
06:09PM 30.1947 -95.3594 360° North 288 331 7,600 3,600 Climbing FlightAware ADS-B
06:09PM 30.2135 -95.3650 337° Northwest 289 333 8,500 3,720 Climbing FlightAware ADS-B
06:09PM 30.2329 -95.3804 322° Northwest 291 335 9,600 2,760 Climbing FlightAware ADS-B
06:10PM 30.2677 -95.4118 322° Northwest 320 368 10,800 2,400 Climbing FlightAware ADS-B
06:10PM 30.3051 -95.4456 322° Northwest 342 394 12,100 2,820 Climbing FlightAware ADS-B
06:11PM 30.3463 -95.4825 322° Northwest 351 404 13,800 3,060 Climbing FlightAware ADS-B
06:12PM 30.4678 -95.5914 322° Northwest 365 420 18,600 2,940 Climbing FlightAware ADS-B
06:13PM 30.5229 -95.6403 324° Northwest 379 436 20,400 2,580 Climbing FlightAware ADS-B
06:13PM 30.5393 -95.6523 328° Northwest 383 441 20,800 2,460 Climbing FlightAware ADS-B
06:13PM 30.5493 -95.6588 331° Northwest 384 442 21,100 2,460 Climbing FlightAware ADS-B
06:14PM 30.5946 -95.6835 335° Northwest 393 452 22,200 2,400 Climbing FlightAware ADS-B
06:14PM 30.6465 -95.7112 335° Northwest 398 458 23,500 1,680 Climbing FlightAware ADS-B
06:16PM 30.8580 -95.8246 335° Northwest 448 516 26,600 2,100 Climbing FlightAware ADS-B
06:17PM 30.9720 -95.8861 335° Northwest 417 480 30,100 2,100 Climbing FlightAware ADS-B
06:18PM 31.0861 -95.9475 335° Northwest 448 516 31,100 900 Climbing FlightAware ADS-B
06:19PM 31.1295 -95.9664 340° North 460 529 31,400 960 Climbing FlightAware ADS-B
06:20PM 31.2367 -95.9940 349° North 476 548 32,300 1,140 Climbing FlightAware ADS-B
06:20PM 31.3071 -96.0105 349° North 478 550 33,000 1,380 Climbing FlightAware ADS-B
06:21PM 31.3744 -96.0263 349° North 478 550 33,800 1,680 Climbing FlightAware ADS-B
06:22PM 31.5127 -96.0589 349° North 473 544 35,700 1,620 Climbing FlightAware ADS-B
06:22PM 31.5846 -96.0758 349° North 470 541 36,500 1,320 Climbing FlightAware ADS-B
06:23PM 31.6588 -96.0932 349° North 470 541 37,200 840 Climbing FlightAware ADS-B
06:24PM 31.8220 -96.1320 348° North 480 552 38,100 720 Climbing FlightAware
06:24PM 31.8514 -96.1389 349° North 480 552 38,300 600 Climbing FlightAware ADS-B
06:26PM 32.0070 -96.1750 349° North 480 552 39,000 360 Climbing FlightAware
06:26PM 32.0930 -96.1960 348° North 477 549 39,000  Level FlightAware
06:26PM 32.1307 -96.2049 349° North 477 549 39,000  Level FlightAware ADS-B
06:27PM 32.2113 -96.2175 352° North 479 551 39,000  Level FlightAware ADS-B
06:28PM 32.2800 -96.2190 359° North 485 558 39,000  Level FlightAware
06:28PM 32.3688 -96.2202 360° North 485 558 39,000  Level FlightAware ADS-B
06:30PM 32.6620 -96.2240 359° North 484 557 39,000  Level FlightAware
06:31PM 32.7530 -96.2250 359° North 484 557 39,000  Level FlightAware
06:32PM 32.8500 -96.2260 360° North 483 556 39,000  Level FlightAware
06:32PM 32.9360 -96.2270 359° North 483 556 39,000  Level FlightAware
06:33PM 33.0340 -96.2280 360° North 482 555 39,000  Level FlightAware
06:34PM 33.1240 -96.2290 359° North 484 557 39,000  Level FlightAware
06:34PM 33.2016 -96.2301 359° North 485 558 39,000  Level FlightAware ADS-B
06:35PM 33.3120 -96.2310 360° North 485 558 39,000 360 Level FlightAware
06:36PM 33.4110 -96.2330 359° North 483 556 39,600 780 Climbing FlightAware
06:37PM 33.4860 -96.2330 360° North 483 556 40,100 600 Climbing FlightAware
06:37PM 33.5370 -96.2290 North 488 562 40,200 540 Climbing FlightAware
06:38PM 33.6280 -96.2030 13° North 495 570 40,700 540 Climbing FlightAware
06:38PM 33.7220 -96.1710 16° North 488 562 41,000 180 Climbing FlightAware
06:39PM 33.8090 -96.1420 15° North 485 558 41,000  Level FlightAware
06:40PM 33.8980 -96.1110 16° North 486 559 41,000  Level FlightAware
06:40PM 33.9940 -96.0790 15° North 482 555 41,000  Level FlightAware
06:41PM 34.0830 -96.0480 16° North 483 556 41,000  Level FlightAware
06:42PM 34.1740 -96.0170 16° North 485 558 41,000  Level FlightAware
06:43PM 34.2600 -95.9870 16° North 481 554 41,000  Level FlightAware
06:43PM 34.3560 -95.9540 16° North 482 555 41,000  Level FlightAware
06:44PM 34.4400 -95.9250 16° North 484 557 41,000  Level FlightAware
06:45PM 34.5300 -95.8940 16° North 483 556 41,000  Level FlightAware
06:45PM 34.6170 -95.8480 24° Northeast 495 570 41,000  Level FlightAware
06:46PM 34.6900 -95.7770 39° Northeast 504 580 41,000  Level FlightAware
06:47PM 34.7590 -95.6970 44° Northeast 504 580 41,000  Level FlightAware
06:47PM 34.8400 -95.6190 38° Northeast 500 575 41,000  Level FlightAware
06:48PM 34.9450 -95.5270 36° Northeast 501 577 41,000  Level FlightAware
06:49PM 35.0080 -95.4730 35° Northeast 500 575 41,000  Level FlightAware
06:50PM 35.0840 -95.4080 35° Northeast 500 575 41,000  Level FlightAware
06:50PM 35.1420 -95.3580 35° Northeast 500 575 41,000  Level FlightAware
06:51PM 35.2480 -95.2600 37° Northeast 507 583 41,000  Level FlightAware
06:52PM 35.3760 -95.1470 36° Northeast 500 575 41,000  Level FlightAware
06:53PM 35.4480 -95.0830 36° Northeast 492 566 41,000  Level FlightAware
06:53PM 35.5230 -95.0160 36° Northeast 485 558 41,000  Level FlightAware
06:54PM 35.6060 -94.9430 36° Northeast 483 556 41,000  Level FlightAware
06:55PM 35.6750 -94.8810 36° Northeast 490 564 41,000  Level FlightAware
06:56PM 35.7610 -94.8040 36° Northeast 500 575 41,000  Level FlightAware
06:56PM 35.8330 -94.7390 36° Northeast 501 577 41,000  Level FlightAware
06:57PM 35.9100 -94.6690 36° Northeast 502 578 41,000  Level FlightAware
06:58PM 35.9920 -94.5950 36° Northeast 496 571 41,000  Level FlightAware
06:58PM 36.0670 -94.5280 36° Northeast 494 568 41,000  Level FlightAware
06:59PM 36.1430 -94.4590 36° Northeast 485 558 41,000  Level FlightAware
07:00PM 36.2190 -94.3900 36° Northeast 488 562 41,000  Level FlightAware
07:00PM 36.2950 -94.3210 36° Northeast 487 560 41,000  Level FlightAware
07:01PM 36.3760 -94.2460 37° Northeast 493 567 41,000  Level FlightAware
07:02PM 36.4520 -94.1770 36° Northeast 494 568 41,000  Level FlightAware
07:03PM 36.5290 -94.1060 37° Northeast 494 568 41,000  Level FlightAware
07:03PM 36.6040 -94.0370 36° Northeast 496 571 41,000  Level FlightAware
07:04PM 36.6870 -93.9600 37° Northeast 492 566 41,000  Level FlightAware
07:05PM 36.7610 -93.8910 37° Northeast 490 564 41,000  Level FlightAware
07:05PM 36.8340 -93.8230 37° Northeast 493 567 41,000  Level FlightAware
07:06PM 36.9170 -93.7460 37° Northeast 497 572 41,000  Level FlightAware
07:07PM 36.9920 -93.6760 37° Northeast 499 574 41,000  Level FlightAware
07:08PM 37.0690 -93.6040 37° Northeast 497 572 41,000  Level FlightAware
07:08PM 37.1420 -93.5360 37° Northeast 493 567 41,000  Level FlightAware
07:09PM 37.2200 -93.4630 37° Northeast 502 578 41,000  Level FlightAware
07:10PM 37.3020 -93.3850 37° Northeast 511 588 41,000  Level FlightAware
07:10PM 37.3710 -93.3200 37° Northeast 514 592 41,000  Level FlightAware
07:11PM 37.4620 -93.2360 36° Northeast 516 594 41,000  Level FlightAware
07:12PM 37.5470 -93.1580 36° Northeast 517 595 41,000  Level FlightAware
07:12PM 37.6280 -93.0830 36° Northeast 518 596 41,000  Level FlightAware
07:13PM 37.7060 -93.0110 36° Northeast 520 598 41,000  Level FlightAware
07:14PM 37.7790 -92.9420 37° Northeast 520 598 41,000  Level FlightAware
07:15PM 37.8710 -92.8570 36° Northeast 522 601 41,000  Level FlightAware
07:15PM 37.9450 -92.7870 37° Northeast 523 602 41,000  Level FlightAware
07:16PM 38.0310 -92.7060 37° Northeast 523 602 41,000  Level FlightAware
07:17PM 38.1090 -92.6330 36° Northeast 524 603 41,000  Level FlightAware
07:17PM 38.1890 -92.5570 37° Northeast 524 603 41,000  Level FlightAware
07:18PM 38.2710 -92.4800 36° Northeast 524 603 41,000  Level FlightAware
07:19PM 38.3820 -92.3740 37° Northeast 532 612 41,000  Level FlightAware
07:20PM 38.4440 -92.3160 36° Northeast 532 612 41,000  Level FlightAware
07:20PM 38.5260 -92.2410 36° Northeast 532 612 41,000  Level FlightAware
07:21PM 38.5850 -92.1860 36° Northeast 532 612 41,000  Level FlightAware
07:22PM 38.6630 -92.1130 36° Northeast 532 612 41,000  Level FlightAware
07:22PM 38.7240 -92.0570 36° Northeast 532 612 41,000  Level FlightAware
07:23PM 38.8830 -91.8920 39° Northeast 535 616 41,000  Level FlightAware
07:24PM 38.9490 -91.8290 37° Northeast 535 616 41,000  Level FlightAware
07:25PM 39.0480 -91.7330 37° Northeast 535 616 41,000  Level FlightAware
07:25PM 39.1230 -91.6600 37° Northeast 535 616 41,000  Level FlightAware
07:26PM 39.1850 -91.5990 37° Northeast 535 616 41,000  Level FlightAware
07:27PM 39.3000 -91.4860 37° Northeast 533 613 41,000  Level FlightAware
07:27PM 39.3800 -91.4070 37° Northeast 532 612 41,000  Level FlightAware
07:28PM 39.4920 -91.2960 37° Northeast 534 615 41,000  Level FlightAware
07:29PM 39.5560 -91.2320 38° Northeast 534 615 41,000  Level FlightAware
07:30PM 39.6460 -91.1420 38° Northeast 533 613 41,000  Level FlightAware
07:30PM 39.7230 -91.0660 37° Northeast 531 611 41,000  Level FlightAware
07:31PM 39.8210 -90.9680 38° Northeast 532 612 41,000 -300 Level FlightAware
07:32PM 39.8980 -90.8900 38° Northeast 520 598 40,600 -1,920 Descending FlightAware
07:32PM 39.9750 -90.8120 38° Northeast 533 613 38,500 -3,720 Descending FlightAware
07:33PM 40.0460 -90.7400 38° Northeast 557 641 35,900 -3,780 Descending FlightAware
07:34PM 40.1390 -90.6470 37° Northeast 562 647 33,400 -1,920 Descending FlightAware
07:35PM 40.2340 -90.5500 38° Northeast 521 600 33,000 -300 Descending FlightAware
07:35PM 40.3090 -90.4730 38° Northeast 502 578 33,000 -600 Level FlightAware
07:36PM 40.3850 -90.3950 38° Northeast 499 574 32,200 -1,380 Descending FlightAware
07:37PM 40.4630 -90.3150 38° Northeast 484 557 31,100 -1,560 Descending FlightAware
07:37PM 40.5340 -90.2420 38° Northeast 474 545 30,000 -1,500 Descending FlightAware
07:38PM 40.5980 -90.1760 38° Northeast 461 531 29,200 -1,140 Descending FlightAware
07:39PM 40.6680 -90.1030 38° Northeast 445 512 28,500 -960 Descending FlightAware
07:39PM 40.7450 -90.0230 38° Northeast 447 514 27,800 -900 Descending FlightAware
07:40PM 40.8100 -89.9560 38° Northeast 450 518 27,200 -900 Descending FlightAware
07:41PM 40.8750 -89.8880 38° Northeast 444 511 26,600 -900 Descending FlightAware
07:41PM 40.9350 -89.8240 39° Northeast 441 507 26,100 -900 Descending FlightAware
07:42PM 41.0100 -89.7460 38° Northeast 442 509 25,400 -960 Descending FlightAware
07:43PM 41.0790 -89.6730 39° Northeast 437 503 24,700 -900 Descending FlightAware
07:44PM 41.1370 -89.6100 39° Northeast 425 489 24,200 -1,320 Descending FlightAware
07:44PM 41.1900 -89.5130 54° Northeast 433 498 22,900 -1,920 Descending FlightAware
07:45PM 41.2320 -89.4080 62° Northeast 430 495 21,400 -2,100 Descending FlightAware
07:46PM 41.2690 -89.3180 61° Northeast 404 465 20,000 -1,980 Descending FlightAware
07:46PM 41.3050 -89.2290 62° Northeast 396 456 18,700 -1,860 Descending FlightAware
07:47PM 41.3420 -89.1380 62° Northeast 397 457 17,400 -1,860 Descending FlightAware
07:48PM 41.3770 -89.0480 63° Northeast 390 449 16,100 -1,980 Descending FlightAware
07:49PM 41.4140 -88.9560 62° Northeast 380 437 14,700 -1,920 Descending FlightAware
07:49PM 41.4480 -88.8700 62° Northeast 365 420 13,400 -1,740 Descending FlightAware
07:50PM 41.4770 -88.7960 62° Northeast 358 412 12,400 -1,620 Descending FlightAware
07:51PM 41.5120 -88.7100 61° Northeast 359 413 11,200 -960 Descending FlightAware
07:51PM 41.5460 -88.6240 62° Northeast 370 426 11,000 -120 Descending FlightAware
07:52PM 41.5780 -88.5420 62° Northeast 371 427 11,100  Climbing FlightAware
07:53PM 41.6130 -88.4600 60° Northeast 368 423 11,000 -120 Descending FlightAware
07:53PM 41.6550 -88.3880 52° Northeast 365 420 11,000 60 Level FlightAware
07:54PM 41.7010 -88.3090 52° Northeast 366 421 11,100  Climbing FlightAware
07:55PM 41.7450 -88.2340 52° Northeast 368 423 11,000 -120 Descending FlightAware
07:56PM 41.7860 -88.1640 52° Northeast 330 380 11,000 -240 Level FlightAware
07:56PM 41.8230 -88.1000 52° Northeast 302 348 10,700 -720 Descending FlightAware
07:57PM 41.8580 -88.0370 53° Northeast 295 339 10,000 -1,140 Descending FlightAware
07:57PM 41.8680 -88.0190 53° Northeast 295 339 9,700 -1,380 Descending FlightAware
07:58PM 41.8840 -87.9650 68° East 305 351 9,000 -1,320 Descending FlightAware
07:58PM 41.8840 -87.9150 90° East 303 349 8,500 -1,140 Descending FlightAware
07:59PM 41.8840 -87.8600 90° East 299 344 8,000 -1,080 Descending FlightAware
07:59PM 41.8840 -87.8130 90° East 274 315 7,500 -1,080 Descending FlightAware
08:00PM 41.8840 -87.7480 90° East 232 267 6,800 -1,260 Descending FlightAware
08:00PM 41.8840 -87.7210 90° East 224 258 6,200 -1,740 Descending FlightAware
08:01PM 41.8970 -87.6770 68° East 200 230 5,100 -1,980 Descending FlightAware
08:01PM 41.9060 -87.6740 14° North 193 222 4,700 -2,100 Descending FlightAware
08:01PM 41.9290 -87.6930 328° Northwest 187 215 3,700 -1,800 Descending FlightAware
08:02PM 41.9440 -87.7180 309° West 185 213 2,900 -1,020 Descending FlightAware
08:02PM 41.9580 -87.7420 308° West 170 196 2,800 -480 Descending FlightAware
08:03PM 41.9640 -87.7520 309° West 169 194 2,600 -900 Descending FlightAware
08:03PM 41.9700 -87.7670 298° West 162 186 2,400 -900 Descending FlightAware
08:03PM 41.9700 -87.7790 270° West 162 186 2,200 -1,020 Descending FlightAware
08:04PM 41.9690 -87.8090 267° West 158 182 1,700 -840 Descending FlightAware
08:04PM 41.9690 -87.8340 270° West 140 161 1,400 -660 Descending FlightAware
08:04PM 41.9690 -87.8590 270° West 138 159 1,100 -720 Descending FlightAware
08:05PM 41.9690 -87.8800 270° West 137 158 800 -480 Descending FlightAware
08:05PM 41.9690 -87.9030 270° West 138 159 700 -240 Descending FlightAware